Mount Tabor, Vermont
Current Conditions -  °F | °C
As of 1:55 PM on Thursday 30 Oct 2014 (Local Time) from KRUT Reporting Station
Overcast Overcast  
Wind Chill: 46°   Ceiling: 5000
Heat Index: 48°   Visibility: 10mi
Dew Point: 36°   Wind: 5mph
Humidity: 62%   Direction: 40°NE
Pressure: 29.93"   Gusts: NA
Location:  43.3492°N, 72.9643°W
Report Text: KRUT 301755Z 04004KT 10SM SCT034 OVC050 09/02 A2993 RMK AO1 10090 20070 57007
Loading
Personal Weather Stations






























Interactive Weather Map New forecast layout! Learn more

10-Day Weather Forecast

Advertisements
Track Severe Weather on mobile